createdAt,value
2018-11-28T00:01:00.245Z,101201.41
2018-11-28T00:03:30.213Z,101200.61
2018-11-28T00:06:00.229Z,101197.62
2018-11-28T00:08:30.185Z,101193.53
2018-11-28T00:11:00.136Z,101201.70
2018-11-28T00:13:30.099Z,101194.90
2018-11-28T00:16:00.033Z,101191.09
2018-11-28T00:18:30.045Z,101193.25
2018-11-28T00:20:59.985Z,101197.88
2018-11-28T00:23:29.975Z,101195.99
2018-11-28T00:25:59.880Z,101197.62
2018-11-28T00:28:29.873Z,101190.54
2018-11-28T00:30:59.845Z,101191.09
2018-11-28T00:33:29.762Z,101177.20
2018-11-28T00:35:59.752Z,101176.95
2018-11-28T00:38:29.735Z,101171.78
2018-11-28T00:40:59.751Z,101170.42
2018-11-28T00:43:29.759Z,101164.41
2018-11-28T00:45:59.768Z,101167.41
2018-11-28T00:48:29.769Z,101165.52
2018-11-28T00:50:59.705Z,101163.91
2018-11-28T00:53:29.641Z,101168.79
2018-11-28T00:55:59.545Z,101171.79
2018-11-28T00:58:29.523Z,101165.53
2018-11-28T01:00:59.393Z,101159.83
2018-11-28T01:03:29.338Z,101156.30
2018-11-28T01:05:59.311Z,101159.00
2018-11-28T01:08:29.266Z,101154.09
2018-11-28T01:10:59.279Z,101151.92
2018-11-28T01:13:29.205Z,101156.28
2018-11-28T01:15:59.172Z,101149.75
2018-11-28T01:18:29.121Z,101156.02
2018-11-28T01:20:59.047Z,101150.84
2018-11-28T01:23:29.007Z,101143.48
2018-11-28T01:25:58.924Z,101149.20
2018-11-28T01:28:28.889Z,101153.83
2018-11-28T01:30:58.849Z,101154.69
2018-11-28T01:33:28.813Z,101155.50
2018-11-28T01:35:58.786Z,101162.02
2018-11-28T01:38:28.773Z,101164.48
2018-11-28T01:40:58.754Z,101173.73
2018-11-28T01:43:28.789Z,101178.66
2018-11-28T01:45:58.741Z,101168.03
2018-11-28T01:48:28.755Z,101171.30
2018-11-28T01:50:58.718Z,101172.09
2018-11-28T01:53:28.672Z,101170.75
2018-11-28T01:55:58.630Z,101164.48
2018-11-28T01:58:28.626Z,101166.13
2018-11-28T02:00:58.634Z,101159.02
2018-11-28T02:03:28.634Z,101157.67
2018-11-28T02:05:58.589Z,101160.13
2018-11-28T02:08:28.577Z,101160.40
2018-11-28T02:10:58.569Z,101153.03
2018-11-28T02:13:28.553Z,101160.38
2018-11-28T02:15:58.485Z,101155.20
2018-11-28T02:18:28.415Z,101149.48
2018-11-28T02:20:58.409Z,101157.93
2018-11-28T02:23:28.378Z,101152.75
2018-11-28T02:25:58.315Z,101160.39
2018-11-28T02:28:28.287Z,101160.92
2018-11-28T02:30:58.218Z,101156.31
2018-11-28T02:33:28.186Z,101149.50
2018-11-28T02:35:58.143Z,101148.41
2018-11-28T02:38:28.117Z,101143.48
2018-11-28T02:40:58.093Z,101137.51
2018-11-28T02:43:28.363Z,101130.97
2018-11-28T02:46:14.735Z,101121.16
2018-11-28T02:48:44.675Z,101130.44
2018-11-28T02:51:14.643Z,101127.15
2018-11-28T02:53:44.599Z,101125.78
2018-11-28T02:56:14.552Z,101132.88
2018-11-28T02:58:44.518Z,101125.25
2018-11-28T03:01:14.516Z,101127.69
2018-11-28T03:03:45.190Z,101124.97
2018-11-28T03:06:15.107Z,101114.63
2018-11-28T03:08:45.106Z,101112.97
2018-11-28T03:11:15.095Z,101110.52
2018-11-28T03:13:45.044Z,101101.55
2018-11-28T03:16:22.081Z,101106.70
2018-11-28T03:18:52.112Z,101101.52
2018-11-28T03:21:22.210Z,101111.89
2018-11-28T03:23:52.174Z,101117.89
2018-11-28T03:26:22.084Z,101120.05
2018-11-28T03:28:52.046Z,101120.59
2018-11-28T03:31:22.054Z,101114.31
2018-11-28T03:33:52.258Z,101120.31
2018-11-28T03:36:22.221Z,101125.20
2018-11-28T03:38:52.114Z,101117.30
2018-11-28T03:41:22.139Z,101124.92
2018-11-28T03:43:52.127Z,101118.94
2018-11-28T03:46:22.100Z,101120.28
2018-11-28T03:48:52.043Z,101119.19
2018-11-28T03:51:21.978Z,101122.22
2018-11-28T03:53:51.931Z,101122.48
2018-11-28T03:56:21.885Z,101112.67
2018-11-28T03:58:51.835Z,101103.67
2018-11-28T04:01:21.787Z,101111.58
2018-11-28T04:03:51.777Z,101101.48
2018-11-28T04:06:21.718Z,101096.86
2018-11-28T04:08:51.757Z,101099.58
2018-11-28T04:11:21.701Z,101101.22
2018-11-28T04:13:51.711Z,101102.58
2018-11-28T04:16:21.681Z,101108.30
2018-11-28T04:18:51.674Z,101104.75
2018-11-28T04:21:21.611Z,101105.02
2018-11-28T04:23:51.629Z,101110.18
2018-11-28T04:26:21.552Z,101103.63
2018-11-28T04:28:51.535Z,101103.64
2018-11-28T04:31:21.488Z,101111.00
2018-11-28T04:33:51.473Z,101116.16
2018-11-28T04:36:21.463Z,101111.80
2018-11-28T04:38:51.445Z,101121.88
2018-11-28T04:41:21.461Z,101118.06
2018-11-28T04:43:51.412Z,101114.52
2018-11-28T04:46:21.430Z,101114.22
2018-11-28T04:49:03.415Z,101116.39
2018-11-28T04:51:33.322Z,101119.95
2018-11-28T04:54:03.888Z,101114.20
2018-11-28T04:56:33.859Z,101110.12
2018-11-28T04:59:16.263Z,101120.73
2018-11-28T05:01:46.224Z,101116.65
2018-11-28T05:04:16.115Z,101115.26
2018-11-28T05:07:49.408Z,101108.70
2018-11-28T05:10:25.688Z,101108.14
2018-11-28T05:12:56.314Z,101106.78
2018-11-28T05:15:31.648Z,101113.88
2018-11-28T05:18:01.993Z,101117.43
2018-11-28T05:20:33.494Z,101111.41
2018-11-28T05:23:04.414Z,101113.04
2018-11-28T05:25:35.621Z,101106.48
2018-11-28T05:28:05.463Z,101101.86
2018-11-28T05:30:35.831Z,101105.39
2018-11-28T05:33:06.118Z,101109.22
2018-11-28T05:35:37.823Z,101110.02
2018-11-28T05:38:13.646Z,101111.13
2018-11-28T05:40:44.494Z,101119.02
2018-11-28T05:43:14.458Z,101118.74
2018-11-28T05:45:44.376Z,101117.65
2018-11-28T05:48:15.175Z,101123.11
2018-11-28T05:50:44.228Z,101113.56
2018-11-28T05:53:26.654Z,101102.91
2018-11-28T05:55:56.621Z,101115.72
2018-11-28T05:58:26.560Z,101114.63
2018-11-28T06:00:56.598Z,101111.61
2018-11-28T06:03:26.593Z,101112.44
2018-11-28T06:05:56.541Z,101114.06
2018-11-28T06:08:26.485Z,101119.80
2018-11-28T06:10:56.545Z,101113.77
2018-11-28T06:13:26.545Z,101120.03
2018-11-28T06:15:57.338Z,101109.67
2018-11-28T06:18:27.278Z,101118.94
2018-11-28T06:20:57.256Z,101108.84
2018-11-28T06:23:27.240Z,101121.93
2018-11-28T06:26:09.719Z,101114.84
2018-11-28T06:28:51.185Z,101102.56
2018-11-28T06:31:21.395Z,101109.65
2018-11-28T06:33:51.363Z,101101.73
2018-11-28T06:36:33.180Z,101114.55
2018-11-28T06:39:02.880Z,101111.81
2018-11-28T06:41:44.659Z,101074.55
2018-11-28T06:44:14.626Z,101105.79
2018-11-28T06:46:44.613Z,101112.08
2018-11-28T06:49:14.605Z,101120.27
2018-11-28T06:51:56.736Z,101125.73
2018-11-28T06:54:38.111Z,101117.27
2018-11-28T06:57:08.420Z,101115.34
2018-11-28T06:59:38.503Z,101121.63
2018-11-28T07:02:08.352Z,101123.00
2018-11-28T07:04:38.329Z,101126.83
2018-11-28T07:07:08.329Z,101144.30
2018-11-28T07:09:38.305Z,101142.94
2018-11-28T07:12:08.281Z,101152.19
2018-11-28T07:14:38.260Z,101147.56
2018-11-28T07:17:08.380Z,101142.11
2018-11-28T07:19:38.351Z,101142.64
2018-11-28T07:22:08.398Z,101144.81
2018-11-28T07:24:38.393Z,101151.90
2018-11-28T07:27:08.374Z,101151.63
2018-11-28T07:29:38.335Z,101165.55
2018-11-28T07:32:08.269Z,101164.72
2018-11-28T07:34:38.219Z,101177.27
2018-11-28T07:37:08.351Z,101177.81
2018-11-28T07:39:57.078Z,101172.88
2018-11-28T07:42:39.281Z,101176.41
2018-11-28T07:45:12.181Z,101173.66
2018-11-28T07:47:42.142Z,101176.66
2018-11-28T07:50:12.244Z,101181.81
2018-11-28T07:52:42.234Z,101183.45
2018-11-28T07:55:12.943Z,101177.42
2018-11-28T07:57:42.824Z,101176.33
2018-11-28T08:03:24.801Z,101174.66
2018-11-28T08:06:16.601Z,101118.84
2018-11-28T08:08:46.630Z,101170.75
2018-11-28T08:11:16.792Z,101175.61
2018-11-28T08:13:46.728Z,101174.78
2018-11-28T08:16:28.262Z,101175.27
2018-11-28T08:19:10.558Z,101167.87
2018-11-28T08:21:41.157Z,101172.76
2018-11-28T08:24:23.085Z,101180.88
2018-11-28T08:27:04.857Z,101179.77
2018-11-28T08:29:46.389Z,101181.34
2018-11-28T08:32:28.365Z,101180.20
2018-11-28T08:35:10.619Z,101182.05
2018-11-28T08:37:40.614Z,101172.95
2018-11-28T08:40:13.924Z,101172.91
2018-11-28T08:43:04.359Z,101168.75
2018-11-28T08:45:45.920Z,101167.33
2018-11-28T08:51:09.285Z,101130.09
2018-11-28T08:53:50.824Z,101122.94
2018-11-28T08:56:32.611Z,101167.41
2018-11-28T08:59:03.302Z,101162.73
2018-11-28T09:01:45.545Z,101141.79
2018-11-28T09:04:27.440Z,101157.19
2018-11-28T09:07:09.125Z,101159.34
2018-11-28T09:09:51.570Z,101163.39
2018-11-28T09:12:41.196Z,101117.51
2018-11-28T09:15:29.838Z,101171.53
2018-11-28T09:18:00.521Z,101167.11
2018-11-28T09:20:30.410Z,101166.52
2018-11-28T09:23:13.060Z,101167.56
2018-11-28T09:25:54.854Z,101165.87
2018-11-28T09:28:36.921Z,101128.98
2018-11-28T09:31:18.728Z,101174.02
2018-11-28T09:34:06.848Z,101143.36
2018-11-28T09:36:36.570Z,101173.14
2018-11-28T09:39:07.523Z,101165.17
2018-11-28T09:41:49.326Z,101166.50
2018-11-28T09:44:31.481Z,101161.27
2018-11-28T09:47:13.543Z,101170.00
2018-11-28T09:49:55.469Z,101110.66
2018-11-28T09:52:37.291Z,101162.83
2018-11-28T09:55:25.201Z,101132.09
2018-11-28T09:58:07.329Z,101158.91
2018-11-28T10:03:52.114Z,101163.20
2018-11-28T10:06:34.997Z,101166.17
2018-11-28T10:09:17.002Z,101167.22
2018-11-28T10:11:58.310Z,101167.68
2018-11-28T10:20:31.857Z,101155.79
2018-11-28T10:23:13.997Z,101119.13
2018-11-28T10:26:03.293Z,101148.00
2018-11-28T10:28:33.272Z,101152.37
2018-11-28T10:31:31.070Z,101142.78
2018-11-28T10:34:12.474Z,101135.33
2018-11-28T10:37:00.571Z,101097.39
2018-11-28T10:39:42.060Z,101130.09
2018-11-28T10:42:24.692Z,101133.05
2018-11-28T10:45:07.833Z,101118.75
2018-11-28T10:47:37.801Z,101123.92
2018-11-28T10:50:10.798Z,101118.95
2018-11-28T10:52:53.028Z,101114.81
2018-11-28T10:55:35.280Z,101104.61
2018-11-28T10:58:17.211Z,101109.24
2018-11-28T11:01:03.902Z,101069.69
2018-11-28T11:03:50.445Z,101106.70
2018-11-28T11:06:37.517Z,101067.06
2018-11-28T11:10:25.521Z,101110.72
2018-11-28T11:15:36.220Z,101102.92
2018-11-28T11:18:10.538Z,101099.31
2018-11-28T11:20:49.430Z,101087.99
2018-11-28T11:23:19.420Z,101099.73
2018-11-28T11:26:16.927Z,101093.89
2018-11-28T11:28:59.509Z,101048.31
2018-11-28T11:31:29.361Z,101103.34
2018-11-28T11:34:10.988Z,101052.78
2018-11-28T11:36:40.974Z,101089.67
2018-11-28T11:39:22.888Z,101085.46
2018-11-28T11:42:05.256Z,101086.98
2018-11-28T11:44:35.528Z,101082.77
2018-11-28T11:47:18.049Z,101076.38
2018-11-28T11:49:48.015Z,101076.56
2018-11-28T11:52:29.906Z,101068.79
2018-11-28T11:54:59.876Z,101071.98
2018-11-28T11:57:29.887Z,101056.26
2018-11-28T11:59:59.824Z,101070.75
2018-11-28T12:02:29.798Z,101067.09
2018-11-28T12:05:11.869Z,101067.85
2018-11-28T12:07:54.053Z,101061.23
2018-11-28T12:10:36.081Z,101066.98
2018-11-28T12:13:17.632Z,101068.94
2018-11-28T12:15:59.489Z,101017.36
2018-11-28T12:18:42.235Z,101061.20
2018-11-28T12:21:23.527Z,101050.97
2018-11-28T12:24:05.318Z,101046.23
2018-11-28T12:26:35.497Z,101050.86
2018-11-28T12:29:17.881Z,101051.91
2018-11-28T12:31:47.880Z,101050.73
2018-11-28T12:34:29.605Z,101056.48
2018-11-28T12:37:11.449Z,101047.73
2018-11-28T12:39:53.767Z,101051.86
2018-11-28T12:42:35.516Z,101036.50
2018-11-28T12:45:17.759Z,101042.42
2018-11-28T12:48:00.049Z,101048.67
2018-11-28T12:50:31.568Z,101048.88
2018-11-28T12:53:13.681Z,101050.50
2018-11-28T12:55:55.208Z,101059.83
2018-11-28T12:58:37.697Z,101051.77
2018-11-28T13:01:19.386Z,101044.84
2018-11-28T13:04:01.272Z,101051.89
2018-11-28T13:06:50.160Z,101038.61
2018-11-28T13:09:20.140Z,101035.48
2018-11-28T13:11:50.187Z,101024.17
2018-11-28T13:14:32.164Z,101024.13
2018-11-28T13:17:14.868Z,101015.55
2018-11-28T13:19:59.076Z,101030.91
2018-11-28T13:22:39.271Z,101021.83
2018-11-28T13:25:23.614Z,101023.45
2018-11-28T13:27:53.669Z,101025.08
2018-11-28T13:30:24.928Z,101017.95
2018-11-28T13:33:06.469Z,101009.38
2018-11-28T13:35:36.764Z,101003.33
2018-11-28T13:41:00.731Z,100987.63
2018-11-28T13:43:43.060Z,100991.21
2018-11-28T13:46:13.124Z,100985.47
2018-11-28T13:48:55.589Z,100991.76
2018-11-28T13:51:37.422Z,101000.83
2018-11-28T13:54:21.431Z,100998.08
2018-11-28T13:57:06.101Z,100998.00
2018-11-28T13:59:19.330Z,100993.00
2018-11-28T14:02:01.335Z,100945.43
2018-11-28T14:04:31.538Z,100986.58
2018-11-28T14:07:13.521Z,100978.88
2018-11-28T14:09:55.010Z,100984.95
2018-11-28T14:12:24.997Z,100976.70
2018-11-28T14:15:36.383Z,100978.88
2018-11-28T14:18:19.268Z,100978.33
2018-11-28T14:21:01.441Z,100935.05
2018-11-28T14:23:43.902Z,100966.84
2018-11-28T14:26:25.839Z,100971.51
2018-11-28T14:29:07.647Z,100971.84
2018-11-28T14:31:50.305Z,100978.46
2018-11-28T14:34:20.306Z,100979.84
2018-11-28T14:37:02.782Z,100971.64
2018-11-28T14:39:45.349Z,100975.84
2018-11-28T14:42:27.005Z,100968.97
2018-11-28T14:45:12.699Z,100978.09
2018-11-28T14:47:54.594Z,100978.09
2018-11-28T14:50:36.274Z,100942.48
2018-11-28T14:53:17.937Z,100977.84
2018-11-28T14:55:48.068Z,100976.22
2018-11-28T14:58:30.757Z,100961.95
2018-11-28T15:01:13.104Z,100931.87
2018-11-28T15:03:54.921Z,100982.44
2018-11-28T15:06:43.679Z,100974.58
2018-11-28T15:09:18.757Z,100979.57
2018-11-28T15:11:48.651Z,100975.78
2018-11-28T15:14:18.895Z,100979.41
2018-11-28T15:16:48.853Z,100981.95
2018-11-28T15:19:19.012Z,100973.70
2018-11-28T15:21:49.037Z,100978.20
2018-11-28T15:24:19.088Z,100980.40
2018-11-28T15:26:49.116Z,100977.41
2018-11-28T15:29:19.093Z,100977.70
2018-11-28T15:31:49.156Z,100972.83
2018-11-28T15:34:19.152Z,100984.44
2018-11-28T15:36:49.150Z,100978.98
2018-11-28T15:39:19.113Z,100986.98
2018-11-28T15:41:49.082Z,100999.42
2018-11-28T15:44:19.955Z,100995.59
2018-11-28T15:46:49.336Z,100989.05
2018-11-28T15:49:19.532Z,100985.55
2018-11-28T15:51:49.533Z,100987.80
2018-11-28T15:54:19.563Z,100983.17
2018-11-28T15:56:49.518Z,100985.42
2018-11-28T15:59:19.529Z,100991.53
2018-11-28T16:01:49.561Z,100996.77
2018-11-28T16:04:19.562Z,101001.48
2018-11-28T16:06:49.543Z,100998.55
2018-11-28T16:09:24.497Z,101002.72
2018-11-28T16:11:54.467Z,100997.84
2018-11-28T16:14:24.468Z,100997.34
2018-11-28T16:16:54.494Z,101000.95
2018-11-28T16:19:24.442Z,100999.08
2018-11-28T16:21:54.452Z,100995.32
2018-11-28T16:24:24.389Z,100995.94
2018-11-28T16:26:54.383Z,101000.67
2018-11-28T16:29:24.344Z,100993.05
2018-11-28T16:31:54.510Z,101003.02
2018-11-28T16:34:24.870Z,100986.41
2018-11-28T16:36:55.012Z,100992.80
2018-11-28T16:39:24.979Z,101000.34
2018-11-28T16:41:54.969Z,101004.81
2018-11-28T16:44:24.959Z,100996.66
2018-11-28T16:46:55.232Z,100998.39
2018-11-28T16:49:25.205Z,100988.89
2018-11-28T16:51:55.145Z,100988.99
2018-11-28T16:54:25.146Z,100985.81
2018-11-28T16:56:55.105Z,100983.96
2018-11-28T16:59:25.122Z,100999.40
2018-11-28T17:01:55.122Z,101000.30
2018-11-28T17:04:25.087Z,101002.56
2018-11-28T17:06:55.103Z,101007.31
2018-11-28T17:09:25.057Z,101001.64
2018-11-28T17:11:55.145Z,101010.20
2018-11-28T17:14:25.178Z,101023.41
2018-11-28T17:16:55.163Z,101014.92
2018-11-28T17:19:25.118Z,101020.16
2018-11-28T17:21:55.121Z,101025.12
2018-11-28T17:24:25.116Z,101010.88
2018-11-28T17:26:55.117Z,101016.09
2018-11-28T17:29:25.111Z,101025.69
2018-11-28T17:31:55.265Z,101024.06
2018-11-28T17:34:25.269Z,101026.80
2018-11-28T17:36:55.407Z,101018.05
2018-11-28T17:39:25.414Z,101031.75
2018-11-28T17:41:55.433Z,101029.55
2018-11-28T17:44:25.452Z,101034.48
2018-11-28T17:46:55.578Z,101029.29
2018-11-28T17:49:27.959Z,101024.92
2018-11-28T17:51:55.632Z,101029.61
2018-11-28T17:54:25.607Z,101035.62
2018-11-28T17:56:55.560Z,101036.75
2018-11-28T17:59:26.403Z,101023.36
2018-11-28T18:01:56.407Z,101025.27
2018-11-28T18:04:30.027Z,101029.44
2018-11-28T18:06:56.371Z,101016.85
2018-11-28T18:09:26.354Z,101017.39
2018-11-28T18:11:56.415Z,101016.02
2018-11-28T18:14:26.468Z,101017.70
2018-11-28T18:16:56.414Z,101022.36
2018-11-28T18:19:26.369Z,101024.84
2018-11-28T18:21:56.365Z,101014.73
2018-11-28T18:24:26.380Z,101017.22
2018-11-28T18:26:56.348Z,101014.54
2018-11-28T18:29:26.600Z,101007.18
2018-11-28T18:31:56.755Z,101006.06
2018-11-28T18:34:26.743Z,101006.61
2018-11-28T18:36:56.939Z,101008.48
2018-11-28T18:39:27.631Z,101001.89
2018-11-28T18:41:57.600Z,100988.17
2018-11-28T18:44:27.639Z,100988.42
2018-11-28T18:46:57.651Z,100985.68
2018-11-28T18:49:27.571Z,100981.57
2018-11-28T18:51:57.573Z,100981.51
2018-11-28T18:54:27.619Z,100983.39
2018-11-28T18:56:57.613Z,100985.87
2018-11-28T18:59:27.947Z,100984.77
2018-11-28T19:01:57.950Z,100983.39
2018-11-28T19:04:27.967Z,100978.48
2018-11-28T19:06:57.948Z,100983.39
2018-11-28T19:09:33.169Z,100982.28
2018-11-28T19:12:03.892Z,100998.97
2018-11-28T19:14:33.874Z,100959.58
2018-11-28T19:17:04.027Z,101000.57
2018-11-28T19:19:33.774Z,100994.52
2018-11-28T19:22:04.286Z,100982.19
2018-11-28T19:24:34.905Z,100978.91
2018-11-28T19:27:04.906Z,100980.53
2018-11-28T19:29:34.982Z,100974.47
2018-11-28T19:32:05.001Z,100978.58
2018-11-28T19:34:35.036Z,100975.05
2018-11-28T19:37:05.055Z,100991.75
2018-11-28T19:39:35.114Z,100989.55
2018-11-28T19:42:05.164Z,100979.41
2018-11-28T19:44:35.154Z,100978.84
2018-11-28T19:47:05.200Z,100980.72
2018-11-28T19:49:35.231Z,100968.67
2018-11-28T19:52:05.213Z,100978.52
2018-11-28T19:54:35.182Z,100964.75
2018-11-28T19:57:05.239Z,100949.64
2018-11-28T19:59:35.278Z,100954.55
2018-11-28T20:02:05.676Z,100941.67
2018-11-28T20:04:35.682Z,100945.78
2018-11-28T20:07:05.906Z,100951.52
2018-11-28T20:09:35.942Z,100959.49
2018-11-28T20:12:06.187Z,100964.97
2018-11-28T20:14:36.214Z,100960.03
2018-11-28T20:17:06.403Z,100955.67
2018-11-28T20:19:36.404Z,100959.23
2018-11-28T20:22:06.910Z,100964.97
2018-11-28T20:24:36.829Z,100960.86
2018-11-28T20:27:07.438Z,100962.23
2018-11-28T20:29:37.513Z,100956.75
2018-11-28T20:32:07.757Z,100948.27
2018-11-28T20:34:37.850Z,100938.97
2018-11-28T20:37:07.922Z,100936.80
2018-11-28T20:39:37.899Z,100933.55
2018-11-28T20:42:07.927Z,100939.03
2018-11-28T20:44:37.927Z,100939.31
2018-11-28T20:47:07.900Z,100945.63
2018-11-28T20:49:37.895Z,100942.06
2018-11-28T20:52:08.739Z,100934.41
2018-11-28T20:54:38.752Z,100944.52
2018-11-28T20:57:08.830Z,100946.68
2018-11-28T20:59:38.990Z,100937.91
2018-11-28T21:02:08.928Z,100940.91
2018-11-28T21:04:38.945Z,100946.65
2018-11-28T21:07:08.988Z,100955.37
2018-11-28T21:09:53.438Z,100947.09
2018-11-28T21:12:24.000Z,100943.20
2018-11-28T21:14:54.006Z,100957.16
2018-11-28T21:17:24.064Z,100951.68
2018-11-28T21:19:54.063Z,100959.84
2018-11-28T21:22:24.093Z,100961.17
2018-11-28T21:24:54.079Z,100952.34
2018-11-28T21:27:24.196Z,100943.28
2018-11-28T21:29:54.250Z,100934.20
2018-11-28T21:32:24.298Z,100930.55
2018-11-28T21:34:54.262Z,100926.11
2018-11-28T21:37:24.297Z,100923.88
2018-11-28T21:39:57.355Z,100922.47
2018-11-28T21:42:27.514Z,100923.52
2018-11-28T21:44:57.561Z,100924.03
2018-11-28T21:47:27.539Z,100923.98
2018-11-28T21:49:57.534Z,100930.78
2018-11-28T21:52:27.547Z,100929.91
2018-11-28T21:54:57.719Z,100923.05
2018-11-28T21:57:27.759Z,100910.09
2018-11-28T21:59:57.754Z,100910.67
2018-11-28T22:02:28.396Z,100911.17
2018-11-28T22:04:57.749Z,100917.71
2018-11-28T22:07:27.728Z,100920.95
2018-11-28T22:09:57.757Z,100919.30
2018-11-28T22:12:27.782Z,100931.03
2018-11-28T22:14:57.761Z,100933.77
2018-11-28T22:17:27.725Z,100932.36
2018-11-28T22:19:57.681Z,100938.10
2018-11-28T22:22:27.698Z,100943.27
2018-11-28T22:24:57.741Z,100952.83
2018-11-28T22:27:27.775Z,100939.03
2018-11-28T22:29:57.790Z,100939.55
2018-11-28T22:32:27.741Z,100932.89
2018-11-28T22:34:57.739Z,100929.53
2018-11-28T22:37:27.738Z,100928.34
2018-11-28T22:39:57.700Z,100932.16
2018-11-28T22:42:27.710Z,100931.00
2018-11-28T22:44:58.653Z,100927.06
2018-11-28T22:47:27.745Z,100928.39
2018-11-28T22:49:57.685Z,100928.31
2018-11-28T22:52:27.672Z,100931.56
2018-11-28T22:54:57.624Z,100933.69
2018-11-28T22:57:27.633Z,100938.30
2018-11-28T22:59:57.592Z,100927.28
2018-11-28T23:03:29.824Z,100926.95
2018-11-28T23:05:59.759Z,100929.91
2018-11-28T23:08:29.753Z,100922.97
2018-11-28T23:10:59.701Z,100923.50
2018-11-28T23:13:29.685Z,100915.77
2018-11-28T23:15:59.806Z,100922.05
2018-11-28T23:18:29.798Z,100914.31
2018-11-28T23:20:59.837Z,100906.82
2018-11-28T23:23:29.860Z,100896.66
2018-11-28T23:25:59.833Z,100896.34
2018-11-28T23:28:29.802Z,100892.47
2018-11-28T23:30:59.795Z,100899.03
2018-11-28T23:33:29.716Z,100900.66
2018-11-28T23:36:00.426Z,100901.41
2018-11-28T23:38:30.388Z,100894.78
2018-11-28T23:41:00.260Z,100882.67
2018-11-28T23:43:30.239Z,100875.73
2018-11-28T23:46:00.198Z,100877.92
2018-11-28T23:48:30.149Z,100881.47
2018-11-28T23:51:00.060Z,100879.55
2018-11-28T23:53:30.026Z,100878.67
2018-11-28T23:55:59.957Z,100877.30
2018-11-28T23:58:29.938Z,100875.05
